createdAt,value
2023-02-05T00:00:22.367Z,9.80
2023-02-05T00:03:13.232Z,9.20
2023-02-05T00:06:04.177Z,12.60
2023-02-05T00:08:54.754Z,9.70
2023-02-05T00:11:45.100Z,8.80
2023-02-05T00:14:35.580Z,9.70
2023-02-05T00:17:26.121Z,12.30
2023-02-05T00:20:17.380Z,10.10
2023-02-05T00:23:08.454Z,8.90
2023-02-05T00:26:00.651Z,10.80
2023-02-05T00:28:51.929Z,10.40
2023-02-05T00:31:43.566Z,10.10
2023-02-05T00:34:34.363Z,9.70
2023-02-05T00:37:24.731Z,9.90
2023-02-05T00:40:17.240Z,11.20
2023-02-05T00:43:08.981Z,10.30
2023-02-05T00:46:00.138Z,10.20
2023-02-05T00:48:51.537Z,11.00
2023-02-05T00:51:42.128Z,10.40
2023-02-05T00:54:33.089Z,10.30
2023-02-05T00:57:24.998Z,10.60
2023-02-05T01:00:18.283Z,12.90
2023-02-05T01:03:08.942Z,12.00
2023-02-05T01:05:59.997Z,12.20
2023-02-05T01:08:50.965Z,13.20
2023-02-05T01:11:41.290Z,12.00
2023-02-05T01:14:31.387Z,11.30
2023-02-05T01:17:22.336Z,10.80
2023-02-05T01:20:16.186Z,11.10
2023-02-05T01:23:06.610Z,11.50
2023-02-05T01:25:57.821Z,10.90
2023-02-05T01:28:49.017Z,9.60
2023-02-05T01:31:39.905Z,9.50
2023-02-05T01:34:30.346Z,8.40
2023-02-05T01:37:21.116Z,9.00
2023-02-05T01:40:15.509Z,10.70
2023-02-05T01:43:06.524Z,9.50
2023-02-05T01:46:29.042Z,10.20
2023-02-05T01:49:25.461Z,10.20
2023-02-05T01:52:19.068Z,11.40
2023-02-05T01:55:12.524Z,11.70
2023-02-05T01:58:04.801Z,11.50
2023-02-05T02:00:56.504Z,12.90
2023-02-05T02:03:48.597Z,12.60
2023-02-05T02:06:40.029Z,11.50
2023-02-05T02:09:33.593Z,13.30
2023-02-05T02:12:29.030Z,9.80
2023-02-05T02:15:22.719Z,9.80
2023-02-05T02:18:31.091Z,8.60
2023-02-05T02:21:47.328Z,10.00
2023-02-05T02:25:02.428Z,10.30
2023-02-05T02:28:00.555Z,10.30
2023-02-05T02:31:00.689Z,8.50
2023-02-05T02:33:58.119Z,8.30
2023-02-05T02:36:56.529Z,7.50
2023-02-05T02:39:56.987Z,9.60
2023-02-05T02:42:52.364Z,9.90
2023-02-05T02:45:49.452Z,12.10
2023-02-05T02:48:43.309Z,10.10
2023-02-05T02:51:36.055Z,10.70
2023-02-05T02:54:28.115Z,9.00
2023-02-05T02:57:20.984Z,10.70
2023-02-05T03:00:19.991Z,12.50
2023-02-05T03:03:13.558Z,10.00
2023-02-05T03:06:07.714Z,12.00
2023-02-05T03:09:01.561Z,12.10
2023-02-05T03:11:52.368Z,12.40
2023-02-05T03:14:44.736Z,10.70
2023-02-05T03:17:35.532Z,11.30
2023-02-05T03:20:29.999Z,9.50
2023-02-05T03:23:21.219Z,9.60
2023-02-05T03:26:26.356Z,14.80
2023-02-05T03:29:28.169Z,13.80
2023-02-05T03:32:32.380Z,13.60
2023-02-05T03:35:33.762Z,13.10
2023-02-05T03:38:38.972Z,12.50
2023-02-05T03:41:58.768Z,13.10
2023-02-05T03:45:15.985Z,13.30
2023-02-05T03:48:23.426Z,11.90
2023-02-05T03:51:26.259Z,12.30
2023-02-05T03:54:24.925Z,12.70
2023-02-05T03:57:24.371Z,9.80
2023-02-05T04:00:17.248Z,10.80
2023-02-05T04:03:09.111Z,9.80
2023-02-05T04:06:00.429Z,12.20
2023-02-05T04:08:51.500Z,13.30
2023-02-05T04:11:42.671Z,14.50
2023-02-05T04:14:33.869Z,13.70
2023-02-05T04:17:24.671Z,15.10
2023-02-05T04:20:16.365Z,13.00
2023-02-05T04:23:08.233Z,15.10
2023-02-05T04:25:59.917Z,14.40
2023-02-05T04:28:59.117Z,13.70
2023-02-05T04:31:51.561Z,13.70
2023-02-05T04:34:43.098Z,13.40
2023-02-05T04:37:35.436Z,15.70
2023-02-05T04:40:25.740Z,15.20
2023-02-05T04:43:16.368Z,12.70
2023-02-05T04:46:10.498Z,14.90
2023-02-05T04:49:01.875Z,14.70
2023-02-05T04:51:52.690Z,13.90
2023-02-05T04:54:43.440Z,15.00
2023-02-05T04:57:35.626Z,11.90
2023-02-05T05:00:27.051Z,14.70
2023-02-05T05:03:17.596Z,11.80
2023-02-05T05:06:09.600Z,12.20
2023-02-05T05:09:01.000Z,13.80
2023-02-05T05:11:51.768Z,13.00
2023-02-05T05:14:42.087Z,15.50
2023-02-05T05:17:32.444Z,13.60
2023-02-05T05:20:23.336Z,15.30
2023-02-05T05:23:14.065Z,16.10
2023-02-05T05:26:07.613Z,16.30
2023-02-05T05:28:59.246Z,18.20
2023-02-05T05:31:49.460Z,14.00
2023-02-05T05:34:40.368Z,17.60
2023-02-05T05:37:31.538Z,17.70
2023-02-05T05:40:40.371Z,17.60
2023-02-05T05:43:49.327Z,16.90
2023-02-05T05:46:40.466Z,18.30
2023-02-05T05:49:31.704Z,19.10
2023-02-05T05:52:22.833Z,19.10
2023-02-05T05:55:13.974Z,19.30
2023-02-05T05:58:06.999Z,18.60
2023-02-05T06:00:57.938Z,22.00
2023-02-05T06:03:50.147Z,23.70
2023-02-05T06:06:42.092Z,22.20
2023-02-05T06:09:32.942Z,21.40
2023-02-05T06:12:23.897Z,23.50
2023-02-05T06:15:15.720Z,19.70
2023-02-05T06:18:06.617Z,21.30
2023-02-05T06:20:57.533Z,19.70
2023-02-05T06:23:48.517Z,19.40
2023-02-05T06:26:38.927Z,22.10
2023-02-05T06:29:31.415Z,19.10
2023-02-05T06:32:23.380Z,18.60
2023-02-05T06:35:15.507Z,23.50
2023-02-05T06:38:06.227Z,21.00
2023-02-05T06:40:57.201Z,21.90
2023-02-05T06:43:47.893Z,21.70
2023-02-05T06:46:38.490Z,23.50
2023-02-05T06:49:29.641Z,20.80
2023-02-05T06:52:20.413Z,22.80
2023-02-05T06:55:11.964Z,20.40
2023-02-05T06:58:02.793Z,22.10
2023-02-05T07:00:52.994Z,20.50
2023-02-05T07:03:43.598Z,19.30
2023-02-05T07:06:34.540Z,22.20
2023-02-05T07:09:25.726Z,19.60
2023-02-05T07:12:16.115Z,20.40
2023-02-05T07:15:07.832Z,20.50
2023-02-05T07:17:58.916Z,19.00
2023-02-05T07:20:49.869Z,16.70
2023-02-05T07:23:40.234Z,18.00
2023-02-05T07:26:31.342Z,16.00
2023-02-05T07:29:22.394Z,16.80
2023-02-05T07:32:13.105Z,21.20
2023-02-05T07:35:04.211Z,18.80
2023-02-05T07:37:55.324Z,20.90
2023-02-05T07:40:45.583Z,20.40
2023-02-05T07:43:36.548Z,18.90
2023-02-05T07:46:28.267Z,18.60
2023-02-05T07:49:18.821Z,24.70
2023-02-05T07:52:10.228Z,19.20
2023-02-05T07:55:01.661Z,20.30
2023-02-05T07:57:52.374Z,21.40
2023-02-05T08:00:43.158Z,21.00
2023-02-05T08:03:34.715Z,19.50
2023-02-05T08:06:25.345Z,18.90
2023-02-05T08:09:16.877Z,22.20
2023-02-05T08:12:10.251Z,24.30
2023-02-05T08:15:01.384Z,22.30
2023-02-05T08:17:53.684Z,22.70
2023-02-05T08:20:44.341Z,26.60
2023-02-05T08:23:35.358Z,25.80
2023-02-05T08:26:26.006Z,30.00
2023-02-05T08:29:16.702Z,28.10
2023-02-05T08:32:07.930Z,28.20
2023-02-05T08:34:58.952Z,29.40
2023-02-05T08:37:49.934Z,28.60
2023-02-05T08:40:40.543Z,31.30
2023-02-05T08:43:31.190Z,28.30
2023-02-05T08:46:29.614Z,30.90
2023-02-05T08:49:21.719Z,24.80
2023-02-05T08:52:12.079Z,26.80
2023-02-05T08:55:02.599Z,27.10
2023-02-05T08:57:53.132Z,24.20
2023-02-05T09:00:43.345Z,25.30
2023-02-05T09:03:33.842Z,20.10
2023-02-05T09:06:24.079Z,22.90
2023-02-05T09:09:16.025Z,23.20
2023-02-05T09:12:07.437Z,24.60
2023-02-05T09:14:58.117Z,23.50
2023-02-05T09:17:48.547Z,26.80
2023-02-05T09:20:44.180Z,29.20
2023-02-05T09:23:34.428Z,28.00
2023-02-05T09:26:26.012Z,30.00
2023-02-05T09:29:16.431Z,28.20
2023-02-05T09:32:06.685Z,30.20
2023-02-05T09:34:56.754Z,29.00
2023-02-05T09:37:47.386Z,26.90
2023-02-05T09:40:41.357Z,26.60
2023-02-05T09:43:47.067Z,29.50
2023-02-05T09:46:46.711Z,25.30
2023-02-05T09:49:44.711Z,27.00
2023-02-05T09:52:38.927Z,25.50
2023-02-05T09:55:31.645Z,26.40
2023-02-05T09:58:26.382Z,25.40
2023-02-05T10:01:23.130Z,24.10
2023-02-05T10:04:15.993Z,27.70
2023-02-05T10:07:24.603Z,28.10
2023-02-05T10:10:29.101Z,26.30
2023-02-05T10:13:37.238Z,25.50
2023-02-05T10:16:58.644Z,29.50
2023-02-05T10:20:07.622Z,22.10
2023-02-05T10:23:13.810Z,25.60
2023-02-05T10:26:13.839Z,25.30
2023-02-05T10:29:15.976Z,26.60
2023-02-05T10:32:21.439Z,25.00
2023-02-05T10:35:25.140Z,20.30
2023-02-05T10:38:23.514Z,23.50
2023-02-05T10:41:23.722Z,20.30
2023-02-05T10:44:22.370Z,22.50
2023-02-05T10:47:18.483Z,20.80
2023-02-05T11:07:38.084Z,18.00
2023-02-05T11:10:29.694Z,18.60
2023-02-05T11:13:22.997Z,21.10
2023-02-05T11:16:13.790Z,21.00
2023-02-05T11:19:04.800Z,21.00
2023-02-05T11:21:57.941Z,18.00
2023-02-05T11:24:48.933Z,17.40
2023-02-05T11:27:39.515Z,17.80
2023-02-05T11:39:41.262Z,15.30
2023-02-05T11:42:58.683Z,15.30
2023-02-05T11:46:11.008Z,15.50
2023-02-05T11:49:06.564Z,16.10
2023-02-05T12:00:01.414Z,18.40
2023-02-05T12:03:07.435Z,20.10
2023-02-05T12:06:04.986Z,17.50
2023-02-05T12:14:07.408Z,19.10
2023-02-05T12:17:18.145Z,16.30
2023-02-05T12:20:21.914Z,21.70
2023-02-05T12:23:36.580Z,21.20
2023-02-05T12:26:38.102Z,20.30
2023-02-05T12:41:17.508Z,19.90
2023-02-05T12:44:19.747Z,21.60
2023-02-05T12:47:29.088Z,21.90
2023-02-05T12:50:43.499Z,16.90
2023-02-05T12:53:48.902Z,18.50
2023-02-05T12:57:00.776Z,19.50
2023-02-05T13:06:49.179Z,21.50
2023-02-05T13:14:16.572Z,19.10
2023-02-05T13:17:14.444Z,18.30
2023-02-05T13:20:08.258Z,20.80
2023-02-05T13:23:18.516Z,17.50
2023-02-05T13:31:10.643Z,23.50
2023-02-05T13:34:06.746Z,20.80
2023-02-05T13:37:21.658Z,25.10
2023-02-05T13:45:24.374Z,17.20
2023-02-05T13:56:30.783Z,18.00
2023-02-05T14:22:42.810Z,16.20
2023-02-05T14:30:07.407Z,14.00
2023-02-05T14:40:01.358Z,14.70
2023-02-05T14:53:50.705Z,16.30
2023-02-05T14:56:47.120Z,17.80
2023-02-05T15:13:36.903Z,14.90
2023-02-05T15:27:38.629Z,15.80
2023-02-05T15:30:37.441Z,14.70
2023-02-05T15:38:08.935Z,18.10
2023-02-05T15:44:20.162Z,18.00
2023-02-05T15:47:32.555Z,19.10
2023-02-05T16:02:39.634Z,14.50
2023-02-05T16:12:34.646Z,16.60
2023-02-05T16:15:29.673Z,18.40
2023-02-05T16:18:33.518Z,19.60
2023-02-05T16:21:33.132Z,18.00
2023-02-05T16:24:39.885Z,19.00
2023-02-05T16:27:43.947Z,24.00
2023-02-05T16:30:44.240Z,24.40
2023-02-05T16:33:41.785Z,24.30
2023-02-05T16:36:40.240Z,27.40
2023-02-05T16:39:35.739Z,27.60
2023-02-05T16:42:38.642Z,31.50
2023-02-05T16:45:31.453Z,31.20
2023-02-05T16:48:34.182Z,31.90
2023-02-05T16:51:55.267Z,26.70
2023-02-05T16:54:45.647Z,28.20
2023-02-05T16:57:41.454Z,26.20
2023-02-05T17:00:34.205Z,28.00
2023-02-05T17:03:26.354Z,24.90
2023-02-05T17:06:21.234Z,20.20
2023-02-05T17:09:30.674Z,23.90
2023-02-05T17:12:41.003Z,24.40
2023-02-05T17:15:40.664Z,25.10
2023-02-05T17:18:34.361Z,27.50
2023-02-05T17:21:27.887Z,25.10
2023-02-05T17:24:19.205Z,28.40
2023-02-05T17:27:15.370Z,30.40
2023-02-05T17:30:12.158Z,28.30
2023-02-05T17:33:02.121Z,28.20
2023-02-05T17:35:53.078Z,28.20
2023-02-05T17:38:44.429Z,32.40
2023-02-05T17:41:56.578Z,26.50
2023-02-05T17:44:48.148Z,25.10
2023-02-05T17:47:39.397Z,28.70
2023-02-05T17:50:30.404Z,25.60
2023-02-05T17:53:21.542Z,28.80
2023-02-05T17:56:14.033Z,26.40
2023-02-05T17:59:05.359Z,26.90
2023-02-05T18:01:58.735Z,26.20
2023-02-05T18:04:49.693Z,28.00
2023-02-05T18:07:43.116Z,32.80
2023-02-05T18:10:35.569Z,31.40
2023-02-05T18:13:27.448Z,32.00
2023-02-05T18:16:18.657Z,29.20
2023-02-05T18:19:09.677Z,30.70
2023-02-05T18:22:00.633Z,29.70
2023-02-05T18:24:51.517Z,26.20
2023-02-05T18:27:42.299Z,30.00
2023-02-05T18:30:33.010Z,25.20
2023-02-05T18:33:23.983Z,29.70
2023-02-05T18:36:16.776Z,31.10
2023-02-05T18:39:08.686Z,23.80
2023-02-05T18:42:00.289Z,22.50
2023-02-05T18:44:51.106Z,24.00
2023-02-05T18:47:42.566Z,24.90
2023-02-05T18:50:33.680Z,27.30
2023-02-05T18:53:28.128Z,20.20
2023-02-05T18:56:20.725Z,21.30
2023-02-05T18:59:15.626Z,21.70
2023-02-05T19:02:06.215Z,19.10
2023-02-05T19:04:57.558Z,19.00
2023-02-05T19:07:49.040Z,18.20
2023-02-05T19:10:41.314Z,12.60
2023-02-05T19:13:31.970Z,15.80
2023-02-05T19:16:22.434Z,13.20
2023-02-05T19:19:16.536Z,11.50
2023-02-05T19:22:07.561Z,13.40
2023-02-05T19:24:58.692Z,11.60
2023-02-05T19:27:49.868Z,11.10
2023-02-05T19:30:40.936Z,12.80
2023-02-05T19:33:33.413Z,10.50
2023-02-05T19:36:25.173Z,14.50
2023-02-05T19:39:17.778Z,13.50
2023-02-05T19:42:08.492Z,12.10
2023-02-05T19:44:59.570Z,15.30
2023-02-05T19:47:50.186Z,14.90
2023-02-05T19:50:42.116Z,14.60
2023-02-05T19:53:35.673Z,11.60
2023-02-05T19:56:27.535Z,14.20
2023-02-05T19:59:18.132Z,13.10
2023-02-05T20:02:11.378Z,12.10
2023-02-05T20:05:02.837Z,10.60
2023-02-05T20:07:54.243Z,10.30
2023-02-05T20:10:45.026Z,10.60
2023-02-05T20:13:38.159Z,8.20
2023-02-05T20:16:30.195Z,11.10
2023-02-05T20:19:21.856Z,8.50
2023-02-05T20:22:13.212Z,10.70
2023-02-05T20:25:04.460Z,9.70
2023-02-05T20:27:55.117Z,8.70
2023-02-05T20:31:04.224Z,8.80
2023-02-05T20:33:55.155Z,9.20
2023-02-05T20:36:47.200Z,8.60
2023-02-05T20:39:42.104Z,7.80
2023-02-05T20:42:33.113Z,8.40
2023-02-05T20:45:23.953Z,8.20
2023-02-05T20:48:14.917Z,9.70
2023-02-05T20:51:11.393Z,9.40
2023-02-05T20:54:02.263Z,7.90
2023-02-05T20:56:57.354Z,6.80
2023-02-05T20:59:48.972Z,6.50
2023-02-05T21:02:39.391Z,7.20
2023-02-05T21:05:29.998Z,5.90
2023-02-05T21:08:20.579Z,6.00
2023-02-05T21:11:11.644Z,10.30
2023-02-05T21:14:04.248Z,6.40
2023-02-05T21:16:55.081Z,8.50
2023-02-05T21:19:45.788Z,7.10
2023-02-05T21:22:36.083Z,8.20
2023-02-05T21:25:26.159Z,7.00
2023-02-05T21:28:18.970Z,7.90
2023-02-05T21:31:10.799Z,8.70
2023-02-05T21:34:00.645Z,10.00
2023-02-05T21:36:52.884Z,8.10
2023-02-05T21:39:43.980Z,8.80
2023-02-05T21:42:34.916Z,13.70
2023-02-05T21:45:25.926Z,13.90
2023-02-05T21:48:17.540Z,9.50
2023-02-05T21:51:13.495Z,11.80
2023-02-05T21:54:06.343Z,10.90
2023-02-05T21:56:58.137Z,17.80
2023-02-05T21:59:50.417Z,13.70
2023-02-05T22:02:42.249Z,13.90
2023-02-05T22:05:36.037Z,15.50
2023-02-05T22:08:26.954Z,14.70
2023-02-05T22:11:19.592Z,14.40
2023-02-05T22:14:11.573Z,14.70
2023-02-05T22:17:02.463Z,15.80
2023-02-05T22:19:54.022Z,12.30
2023-02-05T22:22:44.344Z,10.20
2023-02-05T22:25:35.518Z,10.60
2023-02-05T22:28:26.221Z,10.20
2023-02-05T22:31:18.383Z,14.20
2023-02-05T22:34:08.724Z,9.80
2023-02-05T22:36:59.916Z,9.80
2023-02-05T22:39:50.668Z,11.80
2023-02-05T22:42:41.341Z,11.00
2023-02-05T22:45:33.566Z,10.00
2023-02-05T22:48:24.741Z,9.80
2023-02-05T22:51:17.847Z,9.00
2023-02-05T22:54:09.674Z,8.40
2023-02-05T22:57:00.576Z,8.90
2023-02-05T22:59:51.022Z,8.80
2023-02-05T23:02:42.756Z,7.50
2023-02-05T23:05:36.513Z,9.80
2023-02-05T23:08:27.493Z,7.90
2023-02-05T23:11:18.409Z,10.30
2023-02-05T23:14:09.622Z,10.00
2023-02-05T23:17:00.269Z,11.10
2023-02-05T23:19:54.192Z,10.90
2023-02-05T23:22:44.318Z,9.70
2023-02-05T23:25:37.704Z,10.80
2023-02-05T23:28:28.338Z,10.50
2023-02-05T23:31:19.164Z,9.90
2023-02-05T23:34:10.004Z,9.50
2023-02-05T23:37:01.043Z,9.40
2023-02-05T23:39:51.201Z,9.10
2023-02-05T23:42:41.436Z,7.10
2023-02-05T23:45:32.080Z,10.10
2023-02-05T23:48:23.281Z,8.20
2023-02-05T23:51:14.069Z,9.70
2023-02-05T23:54:05.424Z,8.70
2023-02-05T23:56:56.794Z,8.60
2023-02-05T23:59:47.652Z,8.60
